Data for 03/18/2018

Time Sea-Level Adjusted Pressure Absolute Pressure Temperature Relative Humidity Dew Point   
(mb) (inHg) (mb) (inHg) (C) (F) (%) (C) (F)
00:05 1012 29.88 841 24.83 -0.7 30.8 50 -10 14.1
00:10 1012 29.88 841 24.83 -0.3 31.4 49 -9.9 14.2
00:15 1012 29.88 841 24.83 -0.4 31.2 48 -10 13.9
00:20 1012 29.88 841 24.83 -0.6 30.9 50 -9.7 14.6
00:25 1012 29.88 841 24.83 -0.8 30.5 51 -9.6 14.7
00:30 1012 29.88 841 24.83 -0.9 30.4 51 -9.9 14.2
00:35 1012 29.88 841 24.83 -0.8 30.5 51 -9.8 14.4
00:40 1012 29.88 841 24.83 -0.9 30.4 52 -9.6 14.7
00:45 1012 29.88 841 24.83 -1.1 30 53 -9.6 14.8
00:50 1012 29.88 841 24.83 -1.2 29.8 52 -9.8 14.3
00:55 1012 29.88 841 24.83 -1.1 30 51 -9.9 14.1
01:00 1012 29.88 841 24.83 -1.1 30.1 51 -9.9 14.1
01:05 1012 29.88 841 24.83 -1.3 29.6 54 -9.5 14.9
01:10 1012 29.88 841 24.83 -1.7 29 54 -9.7 14.5
01:15 1012 29.88 841 24.83 -1.9 28.6 54 -10 14
01:20 1012 29.88 841 24.83 -1.8 28.7 52 -10.3 13.4
01:25 1012 29.88 841 24.83 -1.7 29 51 -10.5 13.1
01:30 1012 29.88 841 24.83 -1.5 29.3 50 -10.5 13
01:35 1012 29.88 841 24.83 -1.5 29.4 51 -10.4 13.2
01:40 1012 29.88 841 24.83 -1.5 29.3 50 -10.5 13.1
01:45 1012 29.88 841 24.83 -1.5 29.3 50 -10.6 12.9
01:50 1012 29.88 841 24.83 -1.6 29.1 49 -10.9 12.4
01:55 1012 29.88 841 24.83 -1.6 29.1 49 -10.9 12.4
02:00 1012 29.88 841 24.83 -1.5 29.3 49 -10.8 12.5
02:05 1012 29.88 841 24.83 -1.4 29.5 49 -10.9 12.4
02:10 1012 29.88 841 24.83 -1.4 29.5 48 -11 12.3
02:15 1012 29.88 841 24.83 -1.3 29.6 46 -11.5 11.3
02:20 1012 29.88 841 24.83 -1 30.1 45 -11.5 11.3
02:25 1012 29.88 841 24.83 -1 30.2 45 -11.5 11.4
02:30 1012 29.88 841 24.83 -1 30.2 46 -11.2 11.8
02:35 1012 29.88 841 24.83 -1.2 29.8 48 -10.9 12.3
02:40 1012 29.88 841 24.83 -1.5 29.3 48 -11.1 11.9
02:45 1012 29.88 841 24.83 -1.5 29.4 47 -11.2 11.8
02:50 1012 29.88 841 24.83 -1.4 29.5 46 -11.6 11.1
02:55 1012 29.88 841 24.83 -1.3 29.7 46 -11.4 11.4
03:00 1012 29.88 841 24.83 -1.4 29.5 47 -11.3 11.7
03:05 1012 29.88 841 24.83 -1.5 29.2 48 -11.1 11.9
03:10 1012 29.88 841 24.83 -1.6 29 49 -11 12.3
03:15 1012 29.88 841 24.83 -1.9 28.7 49 -11.1 11.9
03:20 1012 29.88 841 24.83 -2 28.5 49 -11.4 11.4
03:25 1012 29.88 841 24.83 -1.9 28.6 49 -11.3 11.7
03:30 1012 29.88 841 24.83 -2 28.4 48 -11.6 11.1
03:35 1012 29.88 841 24.83 -2 28.3 47 -11.8 10.7
03:40 1012 29.88 841 24.83 -2 28.3 49 -11.5 11.4
03:45 1012 29.88 841 24.83 -2.3 27.9 48 -11.8 10.7
03:50 1012 29.88 841 24.83 -2.1 28.2 46 -12.4 9.7
03:55 1012 29.88 841 24.83 -2 28.4 48 -11.6 11.1
04:00 1012 29.88 841 24.83 -2.4 27.7 52 -11 12.3
04:05 1012 29.88 841 24.83 -3 26.6 52 -11.6 11.1
04:10 1011 29.85 841 24.83 -2.9 26.7 52 -11.5 11.4
04:15 1011 29.85 841 24.83 -2.5 27.5 48 -12 10.5
04:20 1011 29.85 841 24.83 -2.2 28 49 -11.6 11
04:25 1011 29.85 841 24.83 -2.2 28.1 46 -12.2 10
04:30 1011 29.85 841 24.83 -1.7 28.9 44 -12.4 9.7
04:35 1011 29.85 841 24.83 -1.7 28.9 46 -11.8 10.8
04:40 1011 29.85 841 24.83 -1.9 28.5 45 -12.5 9.5
04:45 1011 29.85 841 24.83 -1.6 29.2 43 -12.5 9.5
04:50 1011 29.85 841 24.83 -1.5 29.4 44 -12.2 10
04:55 1011 29.85 841 24.83 -1.5 29.4 42 -12.7 9.1
05:00 1011 29.85 841 24.83 -1.4 29.5 41 -13.2 8.3
05:05 1012 29.88 841 24.83 -1.1 30 42 -12.6 9.3
05:10 1012 29.88 841 24.83 -1.2 29.8 39 -13.4 7.9
05:15 1012 29.88 841 24.83 -1.2 29.8 43 -12.4 9.6
05:20 1012 29.88 841 24.83 -1.5 29.2 43 -12.7 9.1
05:25 1012 29.88 841 24.83 -1.8 28.8 44 -12.6 9.3
05:30 1012 29.88 841 24.83 -2 28.4 45 -12.3 9.8
05:35 1012 29.88 841 24.83 -2.2 28.1 47 -12.1 10.2
05:40 1012 29.88 841 24.83 -2.1 28.2 45 -12.5 9.6
05:45 1012 29.88 841 24.83 -2.1 28.2 46 -12.2 10
05:50 1012 29.88 841 24.83 -2.5 27.4 50 -11.7 10.9
05:55 1012 29.88 841 24.83 -2.9 26.9 50 -11.8 10.7
06:00 1012 29.88 841 24.83 -3 26.7 50 -11.9 10.6
06:05 1012 29.88 841 24.83 -2.9 26.8 50 -11.9 10.5
06:10 1012 29.88 841 24.83 -2.8 26.9 50 -11.8 10.8
06:15 1012 29.88 841 24.83 -3.1 26.5 51 -11.8 10.7
06:20 1012 29.88 841 24.83 -3.2 26.2 51 -11.9 10.6
06:25 1012 29.88 841 24.83 -3.2 26.2 51 -11.9 10.5
06:30 1012 29.88 841 24.83 -3.2 26.2 52 -11.7 10.9
06:35 1012 29.88 841 24.83 -3.4 25.9 52 -11.9 10.6
06:40 1012 29.88 841 24.83 -3.4 25.8 52 -11.8 10.7
06:45 1012 29.88 841 24.83 -3.4 25.8 51 -12.3 9.9
06:50 1012 29.88 841 24.83 -3.1 26.4 49 -12.4 9.7
06:55 1012 29.88 841 24.83 -3.1 26.4 51 -12 10.4
07:00 1012 29.88 841 24.83 -3.3 26 51 -12 10.4
07:05 1012 29.88 841 24.83 -3.5 25.6 52 -12.1 10.2
07:10 1012 29.88 841 24.83 -3.4 25.8 51 -12.2 10
07:15 1012 29.88 841 24.83 -3.2 26.2 49 -12.4 9.7
07:20 1012 29.88 841 24.83 -3.1 26.4 50 -12.2 10
07:25 1012 29.88 841 24.83 -3 26.6 49 -12.2 10.1
07:30 1012 29.88 841 24.83 -3.2 26.3 51 -12 10.3
07:35 1012 29.88 841 24.83 -3.1 26.3 51 -12 10.4
07:40 1012 29.88 841 24.83 -3 26.6 50 -12.1 10.1
07:45 1012 29.88 842 24.86 -3 26.6 50 -12 10.4
07:50 1012 29.88 842 24.86 -2.9 26.7 50 -12 10.5
07:55 1012 29.88 842 24.86 -2.9 26.7 50 -11.9 10.6
08:00 1012 29.88 842 24.86 -3 26.5 50 -12.1 10.3
08:05 1013 29.91 842 24.86 -2.9 26.8 50 -11.9 10.6
08:10 1013 29.91 842 24.86 -2.7 27.1 49 -11.9 10.5
08:15 1013 29.91 842 24.86 -2.8 26.9 51 -11.7 10.9
08:20 1013 29.91 842 24.86 -2.9 26.8 51 -11.7 10.9
08:25 1013 29.91 842 24.86 -2.9 26.7 51 -11.8 10.8
08:30 1013 29.91 842 24.86 -2.9 26.8 50 -11.8 10.7
08:35 1013 29.91 842 24.86 -2.7 27.1 51 -11.6 11.1
08:40 1013 29.91 842 24.86 -2.6 27.2 50 -11.6 11.1
08:45 1013 29.91 842 24.86 -2.4 27.7 50 -11.6 11.2
08:50 1013 29.91 842 24.86 -2.3 27.9 48 -11.7 10.9
08:55 1013 29.91 842 24.86 -2 28.4 47 -11.7 10.9
09:00 1013 29.91 842 24.86 -1.7 28.9 47 -11.6 11.2
09:05 1013 29.91 842 24.86 -1.3 29.7 45 -11.6 11.1
09:10 1013 29.91 842 24.86 -0.7 30.8 42 -11.9 10.6
09:15 1013 29.91 842 24.86 -0.6 30.9 43 -11.6 11.1
09:20 1013 29.91 842 24.86 -0.7 30.7 44 -11.6 11
09:25 1013 29.91 842 24.86 -0.5 31.2 43 -11.4 11.4
09:30 1013 29.91 842 24.86 -0.7 30.7 44 -11.5 11.4
09:35 1013 29.91 842 24.86 -0.3 31.4 43 -11.4 11.4
09:40 1013 29.91 842 24.86 -0.1 31.7 42 -11.4 11.4
09:45 1013 29.91 842 24.86 0.4 32.7 41 -11.4 11.4
09:50 1013 29.91 842 24.86 0.3 32.6 41 -11.5 11.2
09:55 1013 29.91 842 24.86 1.1 34.1 38 -11.8 10.8
10:00 1013 29.91 842 24.86 1.1 34 39 -11.4 11.4
10:05 1013 29.91 842 24.86 2 35.6 35 -11.8 10.8
10:10 1013 29.91 842 24.86 2.8 37 33 -12 10.3
10:15 1013 29.91 842 24.86 2.5 36.4 33 -12.2 10
10:20 1013 29.91 843 24.89 3 37.4 31 -12.7 9.1
10:25 1013 29.91 843 24.89 2.6 36.7 31 -12.9 8.8
10:30 1013 29.91 843 24.89 2.1 35.7 32 -12.9 8.8
10:35 1013 29.91 843 24.89 2.4 36.2 31 -13.1 8.5
10:40 1014 29.94 843 24.89 2.2 36 33 -12.4 9.8
10:45 1014 29.94 843 24.89 2.6 36.6 31 -12.9 8.9
10:50 1014 29.94 843 24.89 2.2 36 32 -13 8.6
10:55 1014 29.94 843 24.89 2.3 36.1 33 -12.2 10
11:00 1014 29.94 843 24.89 2.2 36 33 -12.6 9.3
11:05 1014 29.94 843 24.89 1.7 35.1 36 -11.9 10.5
11:10 1014 29.94 843 24.89 2 35.6 37 -11.1 12
11:15 1014 29.94 843 24.89 1.6 34.9 39 -11 12.2
11:20 1014 29.94 843 24.89 1.5 34.7 38 -11.4 11.4
11:25 1014 29.94 843 24.89 1.6 34.8 38 -11.4 11.6
11:30 1014 29.94 843 24.89 1.3 34.3 39 -11.3 11.6
11:35 1014 29.94 843 24.89 1.8 35.3 37 -11.3 11.7
11:40 1014 29.94 843 24.89 2.2 35.9 37 -11.2 11.8
11:45 1014 29.94 843 24.89 2 35.6 37 -11.3 11.7
11:50 1014 29.94 843 24.89 2.5 36.5 35 -11.5 11.2
11:55 1014 29.94 843 24.89 2.7 36.8 34 -11.7 10.9
12:00 1014 29.94 843 24.89 2.5 36.5 36 -11.2 11.8
12:05 1014 29.94 843 24.89 2.6 36.7 31 -12.9 8.8
12:10 1014 29.94 843 24.89 2.7 36.8 33 -12.2 10
12:15 1014 29.94 843 24.89 2.4 36.2 33 -12.3 9.8
12:20 1014 29.94 843 24.89 2.3 36.2 33 -12.2 10.1
12:25 1014 29.94 843 24.89 2.3 36.1 34 -12.1 10.2
12:30 1014 29.94 843 24.89 2.6 36.7 34 -11.7 10.9
12:35 1014 29.94 843 24.89 2.5 36.6 34 -11.8 10.8
12:40 1014 29.94 844 24.92 2.6 36.7 34 -11.8 10.8
12:45 1014 29.94 844 24.92 2.9 37.3 35 -11.1 11.9
12:50 1014 29.94 844 24.92 3.1 37.5 32 -12.1 10.3
12:55 1014 29.94 844 24.92 3.6 38.6 33 -11.2 11.9
13:00 1014 29.94 844 24.92 4.2 39.6 31 -11.4 11.4
13:05 1014 29.94 844 24.92 4.4 39.9 31 -11.1 11.9
13:10 1014 29.94 844 24.92 3.7 38.6 33 -11.3 11.7
13:15 1014 29.94 844 24.92 3.5 38.3 33 -11.5 11.3
13:20 1014 29.94 844 24.92 3.8 38.8 33 -11 12.2
13:25 1014 29.94 844 24.92 3.7 38.6 32 -11.5 11.4
13:30 1014 29.94 844 24.92 4.1 39.3 33 -10.9 12.4
13:35 1014 29.94 844 24.92 3 37.4 35 -10.9 12.3
13:40 1015 29.97 844 24.92 3 37.5 37 -10.4 13.3
13:45 1015 29.97 844 24.92 2.9 37.3 34 -11.4 11.5
13:50 1015 29.97 844 24.92 3.8 38.8 32 -11.3 11.7
13:55 1015 29.97 844 24.92 3.6 38.5 35 -10.6 12.9
14:00 1015 29.97 844 24.92 3.8 38.9 33 -10.9 12.3
14:05 1015 29.97 844 24.92 3.9 39.1 34 -10.6 12.9
14:10 1015 29.97 844 24.92 3.3 37.9 36 -10.3 13.5
14:15 1015 29.97 844 24.92 3.4 38.1 35 -10.7 12.8
14:20 1015 29.97 844 24.92 3.4 38.2 34 -10.9 12.4
14:25 1014 29.94 844 24.92 4.1 39.3 33 -10.7 12.8
14:30 1014 29.94 844 24.92 3.8 38.9 33 -10.9 12.4
14:35 1014 29.94 844 24.92 4.6 40.3 31 -11.3 11.7
14:40 1014 29.94 844 24.92 5.5 41.9 31 -10.5 13.1
14:45 1014 29.94 844 24.92 6 42.8 29 -10.7 12.8
14:50 1014 29.94 844 24.92 6 42.9 31 -9.7 14.5
14:55 1014 29.94 844 24.92 5.8 42.4 29 -10.8 12.6
15:00 1014 29.94 844 24.92 5.7 42.3 30 -10.5 13.1
15:05 1014 29.94 844 24.92 5.3 41.5 30 -10.9 12.4
15:10 1014 29.94 844 24.92 5.7 42.2 31 -10.2 13.6
15:15 1014 29.94 844 24.92 5.1 41.1 33 -10 13.9
15:20 1014 29.94 844 24.92 4.8 40.7 31 -10.9 12.5
15:25 1014 29.94 844 24.92 5.9 42.6 30 -10.5 13.1
15:30 1014 29.94 844 24.92 6.5 43.7 28 -10.8 12.5
15:35 1014 29.94 844 24.92 6.5 43.6 30 -9.9 14.2
15:40 1014 29.94 844 24.92 6.4 43.4 29 -10.3 13.4
15:45 1015 29.97 844 24.92 6.3 43.3 29 -10.4 13.3
15:50 1015 29.97 844 24.92 6.3 43.3 30 -10.3 13.5
15:55 1015 29.97 844 24.92 6 42.9 30 -10.4 13.2
16:00 1015 29.97 844 24.92 5.7 42.3 33 -9.3 15.2
16:05 1015 29.97 844 24.92 5.7 42.3 30 -10.7 12.7
16:10 1015 29.97 844 24.92 5.5 41.8 31 -10.4 13.3
16:15 1015 29.97 844 24.92 6.1 42.9 29 -10.5 13.1
16:20 1015 29.97 844 24.92 4.9 40.9 33 -9.9 14.2
16:25 1015 29.97 844 24.92 5.5 42 30 -10.7 12.7
16:30 1015 29.97 844 24.92 5.4 41.8 31 -10.2 13.6
16:35 1015 29.97 844 24.92 5.8 42.5 31 -10.2 13.7
16:40 1015 29.97 844 24.92 5.6 42 31 -10.3 13.5
16:45 1015 29.97 844 24.92 5.6 42 32 -9.9 14.2
16:50 1015 29.97 844 24.92 5.7 42.3 32 -9.9 14.1
16:55 1015 29.97 844 24.92 5.3 41.5 33 -9.5 14.8
17:00 1015 29.97 844 24.92 4.7 40.5 36 -9.3 15.3
17:05 1015 29.97 844 24.92 4.8 40.6 33 -10.1 13.9
17:10 1015 29.97 844 24.92 4.4 40 35 -9.8 14.4
17:15 1015 29.97 844 24.92 3.9 39 36 -10 14
17:20 1015 29.97 844 24.92 3.8 38.8 36 -9.8 14.3
17:25 1015 29.97 844 24.92 3.7 38.7 38 -9.4 15.1
17:30 1015 29.97 844 24.92 4 39.1 36 -9.7 14.6
17:35 1015 29.97 845 24.95 4.5 40.1 34 -9.9 14.1
17:40 1015 29.97 845 24.95 4.6 40.2 35 -9.7 14.5
17:45 1015 29.97 845 24.95 4.5 40 34 -10 14
17:50 1016 30 845 24.95 5.3 41.5 32 -10 14
17:55 1016 30 845 24.95 5.4 41.7 32 -9.9 14.2
18:00 1016 30 845 24.95 5.4 41.7 33 -9.5 14.8
18:05 1016 30 845 24.95 4.8 40.7 34 -9.8 14.3
18:10 1016 30 845 24.95 4.9 40.9 35 -9.5 15
18:15 1016 30 845 24.95 4.4 40 37 -9.1 15.6
18:20 1016 30 845 24.95 3.9 39.1 42 -7.7 18.1
18:25 1016 30 845 24.95 3.5 38.3 52 -5.5 22.1
18:30 1016 30 846 24.98 2.9 37.2 59 -4.4 24.1
18:35 1016 30 846 24.98 2.1 35.8 64 -3.9 24.9
18:40 1016 30 846 24.98 1.6 34.9 66 -4 24.8
18:45 1017 30.03 846 24.98 1.6 34.8 68 -3.7 25.4
18:50 1017 30.03 846 24.98 1.4 34.6 72 -3 26.5
18:55 1017 30.03 846 24.98 1.1 34 75 -2.9 26.8
19:00 1017 30.03 846 24.98 1 33.8 77 -2.5 27.4
19:05 1017 30.03 846 24.98 0.9 33.6 80 -2.2 28
19:10 1017 30.03 846 24.98 0.6 33.1 82 -2.1 28.2
19:15 1017 30.03 846 24.98 0.4 32.8 83 -2.1 28.3
19:20 1017 30.03 846 24.98 0.5 32.8 83 -2 28.4
19:25 1017 30.03 847 25.01 0.4 32.7 85 -1.9 28.6
19:30 1017 30.03 847 25.01 0.3 32.6 85 -1.9 28.6
19:35 1017 30.03 847 25.01 0.4 32.7 86 -1.7 28.9
19:40 1017 30.03 847 25.01 0.2 32.4 87 -1.6 29.1
19:45 1018 30.06 847 25.01 0.2 32.3 88 -1.6 29.1
19:50 1018 30.06 847 25.01 0.2 32.4 88 -1.5 29.3
19:55 1018 30.06 847 25.01 0.3 32.5 88 -1.5 29.3
20:00 1018 30.06 847 25.01 0.3 32.5 88 -1.5 29.3
20:05 1018 30.06 847 25.01 0.3 32.5 88 -1.5 29.3
20:10 1018 30.06 847 25.01 0.2 32.4 88 -1.5 29.3
20:15 1018 30.06 847 25.01 0.2 32.3 88 -1.6 29.2
20:20 1018 30.06 847 25.01 0.2 32.3 88 -1.6 29.2
20:25 1018 30.06 847 25.01 0.1 32.3 88 -1.5 29.2
20:30 1018 30.06 847 25.01 0.1 32.2 89 -1.5 29.3
20:35 1018 30.06 847 25.01 0.1 32.2 89 -1.5 29.2
20:40 1018 30.06 847 25.01 0.1 32.1 89 -1.6 29.2
20:45 1018 30.06 847 25.01 0 32.1 89 -1.5 29.3
20:50 1018 30.06 847 25.01 -0.1 31.9 89 -1.6 29.1
20:55 1018 30.06 847 25.01 -0.1 31.8 90 -1.6 29.1
21:00 1018 30.06 847 25.01 -0.1 31.9 90 -1.5 29.3
21:05 1018 30.06 847 25.01 -0.1 31.9 90 -1.6 29.2
21:10 1018 30.06 848 25.04 -0.2 31.7 90 -1.6 29.2
21:15 1018 30.06 848 25.04 -0.1 31.8 90 -1.5 29.3
21:20 1018 30.06 848 25.04 -0 31.9 90 -1.5 29.3
21:25 1018 30.06 848 25.04 -0.1 31.9 90 -1.5 29.3
21:30 1019 30.09 848 25.04 -0.1 31.8 89 -1.6 29
21:35 1019 30.09 848 25.04 -0.3 31.5 90 -1.8 28.8
21:40 1019 30.09 848 25.04 -0.3 31.4 90 -1.8 28.8
21:45 1019 30.09 848 25.04 -0.4 31.2 90 -1.9 28.6
21:50 1019 30.09 848 25.04 -0.5 31.2 90 -1.8 28.7
21:55 1019 30.09 848 25.04 -0.4 31.3 90 -1.8 28.7
22:00 1019 30.09 848 25.04 -0.4 31.3 90 -1.9 28.6
22:05 1019 30.09 848 25.04 -0.5 31.1 90 -2 28.4
22:10 1019 30.09 848 25.04 -0.7 30.8 91 -2 28.3
22:15 1019 30.09 848 25.04 -0.7 30.8 91 -2 28.3
22:20 1019 30.09 848 25.04 -0.6 30.9 91 -2 28.5
22:25 1019 30.09 848 25.04 -0.6 31 90 -1.9 28.5
22:30 1019 30.09 848 25.04 -0.6 31 90 -2.1 28.3
22:35 1019 30.09 848 25.04 -0.8 30.6 90 -2.2 28
22:40 1019 30.09 848 25.04 -0.9 30.4 90 -2.3 27.8
22:45 1019 30.09 848 25.04 -1 30.1 90 -2.4 27.6
22:50 1019 30.09 848 25.04 -1.1 30 90 -2.5 27.5
22:55 1019 30.09 848 25.04 -1.1 30 90 -2.5 27.5
23:00 1019 30.09 848 25.04 -1.2 29.9 90 -2.5 27.4
23:05 1019 30.09 848 25.04 -1.2 29.8 90 -2.6 27.3
23:10 1019 30.09 848 25.04 -1.2 29.9 90 -2.5 27.4
23:15 1019 30.09 848 25.04 -1.2 29.9 90 -2.6 27.4
23:20 1019 30.09 848 25.04 -1.2 29.9 90 -2.6 27.4
23:25 1019 30.09 848 25.04 -1.1 30 90 -2.6 27.4
23:30 1019 30.09 848 25.04 -1.1 30.1 90 -2.5 27.5
23:35 1019 30.09 848 25.04 -1 30.2 90 -2.4 27.6
23:40 1019 30.09 848 25.04 -0.9 30.4 89 -2.5 27.6
23:45 1019 30.09 848 25.04 -1 30.3 90 -2.5 27.6
23:50 1019 30.09 849 25.07 -0.9 30.3 90 -2.4 27.6
23:55 1019 30.09 849 25.07 -1 30.3 89 -2.5 27.5
24:00 1019 30.09 849 25.07 -1 30.2 89 -2.6 27.4